createdAt,value
2023-05-20T00:02:10.850Z,10.92
2023-05-20T00:04:37.269Z,10.77
2023-05-20T00:07:04.238Z,10.77
2023-05-20T00:09:30.582Z,10.76
2023-05-20T00:11:56.911Z,10.73
2023-05-20T00:14:23.247Z,10.71
2023-05-20T00:16:50.704Z,10.76
2023-05-20T00:19:17.205Z,10.79
2023-05-20T00:21:43.774Z,10.77
2023-05-20T00:24:10.122Z,10.73
2023-05-20T00:26:39.606Z,10.79
2023-05-20T00:29:05.948Z,10.89
2023-05-20T00:31:32.309Z,10.56
2023-05-20T00:33:58.672Z,10.84
2023-05-20T00:36:24.987Z,10.77
2023-05-20T00:38:53.340Z,10.76
2023-05-20T00:41:19.747Z,10.80
2023-05-20T00:43:46.073Z,10.86
2023-05-20T00:46:12.780Z,10.86
2023-05-20T00:48:43.287Z,10.75
2023-05-20T00:51:10.770Z,10.72
2023-05-20T00:56:18.645Z,10.65
2023-05-20T00:58:47.165Z,10.67
2023-05-20T01:01:13.651Z,10.71
2023-05-20T01:03:40.202Z,10.87
2023-05-20T01:06:06.635Z,10.90
2023-05-20T01:08:34.177Z,10.74
2023-05-20T01:11:04.734Z,10.71
2023-05-20T01:13:35.022Z,10.76
2023-05-20T01:16:03.539Z,10.84
2023-05-20T01:18:32.385Z,10.84
2023-05-20T01:21:01.581Z,10.55
2023-05-20T01:23:32.572Z,10.62
2023-05-20T01:25:58.944Z,10.62
2023-05-20T01:28:27.066Z,10.57
2023-05-20T01:30:56.273Z,10.58
2023-05-20T01:33:24.421Z,10.58
2023-05-20T01:35:52.071Z,10.66
2023-05-20T01:38:19.283Z,10.65
2023-05-20T01:40:53.788Z,10.62
2023-05-20T01:43:21.040Z,10.67
2023-05-20T01:45:48.533Z,10.62
2023-05-20T01:48:14.914Z,10.62
2023-05-20T01:50:41.268Z,10.68
2023-05-20T01:53:10.708Z,10.83
2023-05-20T01:55:42.179Z,10.72
2023-05-20T01:58:08.536Z,10.69
2023-05-20T02:00:35.015Z,10.70
2023-05-20T02:03:03.494Z,10.75
2023-05-20T02:05:41.839Z,10.76
2023-05-20T02:08:08.357Z,10.71
2023-05-20T02:10:34.738Z,10.76
2023-05-20T02:13:01.112Z,10.58
2023-05-20T02:15:27.521Z,10.54
2023-05-20T02:17:53.946Z,10.60
2023-05-20T02:20:20.326Z,10.58
2023-05-20T02:22:46.782Z,10.59
2023-05-20T02:25:13.261Z,10.72
2023-05-20T02:27:40.695Z,10.62
2023-05-20T02:30:07.410Z,10.60
2023-05-20T02:32:40.046Z,10.67
2023-05-20T02:35:06.717Z,10.73
2023-05-20T02:37:34.503Z,10.65
2023-05-20T02:40:01.221Z,10.74
2023-05-20T02:42:27.577Z,10.71
2023-05-20T02:44:56.557Z,10.66
2023-05-20T02:47:23.033Z,10.61
2023-05-20T02:49:49.395Z,10.58
2023-05-20T02:52:16.541Z,10.59
2023-05-20T02:54:42.927Z,10.57
2023-05-20T02:57:09.291Z,10.58
2023-05-20T02:59:35.624Z,10.57
2023-05-20T03:02:02.063Z,10.58
2023-05-20T03:04:31.617Z,10.62
2023-05-20T03:06:58.195Z,10.62
2023-05-20T03:09:25.155Z,10.63
2023-05-20T03:11:51.546Z,10.61
2023-05-20T03:14:17.919Z,10.72
2023-05-20T03:16:44.279Z,10.85
2023-05-20T03:19:10.653Z,10.70
2023-05-20T03:21:39.079Z,10.62
2023-05-20T03:24:05.606Z,10.56
2023-05-20T03:26:33.907Z,10.58
2023-05-20T03:29:00.253Z,10.57
2023-05-20T03:31:27.374Z,10.56
2023-05-20T03:33:53.729Z,10.58
2023-05-20T03:36:20.077Z,10.58
2023-05-20T03:38:46.433Z,10.56
2023-05-20T03:41:16.822Z,10.56
2023-05-20T03:43:43.197Z,10.58
2023-05-20T03:46:18.691Z,10.58
2023-05-20T03:48:48.119Z,10.56
2023-05-20T03:51:14.472Z,10.56
2023-05-20T03:53:40.916Z,10.56
2023-05-20T03:56:12.288Z,10.57
2023-05-20T03:58:38.807Z,10.63
2023-05-20T04:01:05.445Z,10.73
2023-05-20T04:03:31.952Z,10.76
2023-05-20T04:05:59.443Z,10.66
2023-05-20T04:08:28.923Z,10.63
2023-05-20T04:10:55.796Z,10.69
2023-05-20T04:13:22.290Z,10.71
2023-05-20T04:15:53.172Z,10.79
2023-05-20T04:18:19.620Z,10.82
2023-05-20T04:20:46.486Z,10.87
2023-05-20T04:23:12.869Z,10.92
2023-05-20T04:25:41.208Z,10.81
2023-05-20T04:28:16.835Z,10.78
2023-05-20T04:30:45.091Z,10.88
2023-05-20T04:33:11.880Z,10.99
2023-05-20T04:35:41.512Z,11.05
2023-05-20T04:38:08.598Z,11.08
2023-05-20T04:40:34.952Z,11.12
2023-05-20T04:43:04.047Z,11.11
2023-05-20T04:45:30.471Z,11.22
2023-05-20T04:47:56.966Z,11.27
2023-05-20T04:50:25.372Z,11.25
2023-05-20T04:53:03.054Z,11.35
2023-05-20T04:55:30.789Z,11.63
2023-05-20T04:57:59.224Z,11.65
2023-05-20T05:00:35.662Z,11.55
2023-05-20T05:03:02.510Z,11.65
2023-05-20T05:05:28.901Z,11.63
2023-05-20T05:07:55.316Z,11.59
2023-05-20T05:10:23.353Z,11.56
2023-05-20T05:12:49.723Z,11.62
2023-05-20T05:15:16.167Z,11.61
2023-05-20T05:18:11.520Z,11.59
2023-05-20T05:20:37.939Z,11.69
2023-05-20T05:23:04.316Z,11.94
2023-05-20T05:25:30.855Z,11.94
2023-05-20T05:27:57.251Z,12.09
2023-05-20T05:30:23.661Z,12.00
2023-05-20T05:32:50.253Z,11.75
2023-05-20T05:35:17.725Z,11.61
2023-05-20T05:37:48.293Z,11.80
2023-05-20T05:40:15.733Z,12.01
2023-05-20T05:42:42.057Z,12.11
2023-05-20T05:45:08.841Z,12.16
2023-05-20T05:47:36.462Z,12.18
2023-05-20T05:50:03.029Z,12.36
2023-05-20T05:52:29.413Z,12.29
2023-05-20T05:54:59.992Z,12.37
2023-05-20T05:57:31.357Z,12.28
2023-05-20T06:00:01.912Z,12.32
2023-05-20T06:02:28.399Z,12.35
2023-05-20T06:04:54.831Z,12.51
2023-05-20T06:07:25.221Z,12.67
2023-05-20T06:09:51.590Z,12.42
2023-05-20T06:12:21.905Z,12.49
2023-05-20T06:14:48.813Z,12.35
2023-05-20T06:17:15.171Z,12.47
2023-05-20T06:19:41.567Z,12.49
2023-05-20T06:22:07.942Z,12.42
2023-05-20T06:24:34.510Z,12.43
2023-05-20T06:27:00.940Z,12.48
2023-05-20T06:29:29.080Z,12.57
2023-05-20T06:31:55.394Z,12.56
2023-05-20T06:34:21.750Z,12.58
2023-05-20T06:36:48.115Z,12.59
2023-05-20T06:39:14.449Z,12.80
2023-05-20T06:41:41.884Z,12.96
2023-05-20T06:44:08.283Z,12.99
2023-05-20T06:46:34.881Z,13.05
2023-05-20T06:49:01.280Z,13.19
2023-05-20T06:51:28.295Z,13.18
2023-05-20T06:53:54.694Z,13.22
2023-05-20T06:56:21.548Z,13.35
2023-05-20T06:58:47.910Z,13.42
2023-05-20T07:01:15.955Z,13.43
2023-05-20T07:03:51.880Z,13.45
2023-05-20T07:06:18.301Z,13.30
2023-05-20T07:08:44.801Z,13.26
2023-05-20T07:11:13.141Z,13.26
2023-05-20T07:13:39.544Z,13.27
2023-05-20T07:16:06.041Z,13.27
2023-05-20T07:18:32.440Z,13.33
2023-05-20T07:20:58.840Z,13.75
2023-05-20T07:23:25.209Z,13.65
2023-05-20T07:25:52.860Z,13.59
2023-05-20T07:28:20.481Z,13.63
2023-05-20T07:30:50.089Z,13.77
2023-05-20T07:33:17.577Z,13.58
2023-05-20T07:35:50.340Z,13.69
2023-05-20T07:38:16.753Z,13.69
2023-05-20T07:40:43.131Z,14.03
2023-05-20T07:43:09.492Z,14.27
2023-05-20T07:45:37.218Z,14.28
2023-05-20T07:48:04.415Z,14.53
2023-05-20T07:50:31.041Z,14.55
2023-05-20T07:52:57.395Z,14.51
2023-05-20T07:55:24.021Z,14.97
2023-05-20T07:57:50.626Z,14.83
2023-05-20T08:00:17.036Z,14.73
2023-05-20T08:02:43.496Z,14.78
2023-05-20T08:05:09.996Z,14.73
2023-05-20T08:07:36.403Z,15.02
2023-05-20T08:10:04.911Z,14.80
2023-05-20T08:12:31.301Z,14.70
2023-05-20T08:14:57.650Z,14.75
2023-05-20T08:17:26.141Z,14.95
2023-05-20T08:19:52.542Z,15.06
2023-05-20T08:22:18.895Z,15.06
2023-05-20T08:24:45.456Z,14.89
2023-05-20T08:27:11.811Z,14.88
2023-05-20T08:29:38.272Z,14.96
2023-05-20T08:32:04.864Z,15.28
2023-05-20T08:34:31.217Z,15.26
2023-05-20T08:36:57.826Z,15.05
2023-05-20T08:39:24.919Z,15.08
2023-05-20T08:41:51.323Z,14.98
2023-05-20T08:44:19.125Z,15.07
2023-05-20T08:46:46.008Z,14.91
2023-05-20T08:49:12.456Z,14.94
2023-05-20T08:51:39.529Z,15.00
2023-05-20T08:54:07.033Z,14.97
2023-05-20T08:56:33.894Z,15.29
2023-05-20T08:59:04.318Z,15.47
2023-05-20T09:01:30.842Z,15.67
2023-05-20T09:03:57.189Z,15.90
2023-05-20T09:06:24.158Z,15.85
2023-05-20T09:08:53.535Z,15.86
2023-05-20T09:11:21.761Z,15.85
2023-05-20T09:13:48.159Z,15.62
2023-05-20T09:16:14.704Z,15.91
2023-05-20T09:18:41.622Z,16.07
2023-05-20T09:21:10.120Z,16.36
2023-05-20T09:23:37.687Z,16.23
2023-05-20T09:26:04.258Z,16.25
2023-05-20T09:28:30.858Z,16.40
2023-05-20T09:31:01.486Z,16.22
2023-05-20T09:33:29.901Z,16.32
2023-05-20T09:36:03.491Z,16.46
2023-05-20T09:38:35.440Z,16.57
2023-05-20T09:41:09.596Z,16.75
2023-05-20T09:43:37.293Z,16.92
2023-05-20T09:46:04.462Z,17.33
2023-05-20T09:48:34.155Z,17.45
2023-05-20T09:51:01.779Z,17.42
2023-05-20T09:53:28.418Z,17.35
2023-05-20T09:55:55.268Z,17.49
2023-05-20T09:58:22.808Z,17.63
2023-05-20T10:00:49.369Z,17.53
2023-05-20T10:03:15.892Z,17.50
2023-05-20T10:05:45.387Z,17.84
2023-05-20T10:08:16.077Z,17.71
2023-05-20T10:10:44.891Z,17.85
2023-05-20T10:13:28.730Z,18.06
2023-05-20T10:16:13.299Z,17.64
2023-05-20T10:18:45.683Z,18.04
2023-05-20T10:21:16.044Z,18.04
2023-05-20T10:23:42.492Z,17.53
2023-05-20T10:26:08.926Z,17.59
2023-05-20T10:28:38.861Z,17.54
2023-05-20T10:31:19.098Z,17.74
2023-05-20T10:33:46.071Z,17.74
2023-05-20T10:36:30.620Z,17.84
2023-05-20T10:38:58.220Z,17.87
2023-05-20T10:41:26.693Z,17.75
2023-05-20T10:44:03.470Z,17.80
2023-05-20T10:46:41.863Z,17.96
2023-05-20T10:49:22.468Z,17.85
2023-05-20T10:51:51.532Z,18.11
2023-05-20T10:54:18.010Z,18.04
2023-05-20T10:56:55.657Z,17.93
2023-05-20T10:59:22.313Z,17.61
2023-05-20T11:01:49.030Z,17.74
2023-05-20T11:04:16.626Z,18.01
2023-05-20T11:06:50.582Z,18.19
2023-05-20T11:09:17.134Z,18.34
2023-05-20T11:11:43.587Z,18.33
2023-05-20T11:14:13.618Z,18.33
2023-05-20T11:16:42.421Z,18.24
2023-05-20T11:19:09.495Z,18.19
2023-05-20T11:21:42.554Z,18.04
2023-05-20T11:24:08.887Z,17.96
2023-05-20T11:26:35.939Z,17.73
2023-05-20T11:29:02.450Z,18.22
2023-05-20T11:31:28.941Z,18.52
2023-05-20T11:33:55.318Z,18.88
2023-05-20T11:36:27.937Z,19.39
2023-05-20T11:38:55.404Z,19.63
2023-05-20T11:41:28.924Z,19.70
2023-05-20T11:43:59.202Z,19.79
2023-05-20T11:46:26.144Z,19.52
2023-05-20T11:48:56.404Z,19.38
2023-05-20T11:51:24.890Z,19.18
2023-05-20T11:53:51.281Z,19.10
2023-05-20T11:56:21.517Z,19.17
2023-05-20T11:58:48.026Z,19.23
2023-05-20T12:03:47.457Z,19.37
2023-05-20T12:06:14.986Z,19.39
2023-05-20T12:08:41.321Z,19.58
2023-05-20T12:11:07.724Z,19.98
2023-05-20T12:13:35.402Z,20.03
2023-05-20T12:16:02.349Z,19.95
2023-05-20T12:18:28.841Z,20.04
2023-05-20T12:20:56.263Z,19.68
2023-05-20T12:23:22.692Z,19.63
2023-05-20T12:25:50.031Z,19.80
2023-05-20T12:28:17.666Z,20.14
2023-05-20T12:30:44.164Z,20.64
2023-05-20T12:33:10.532Z,20.51
2023-05-20T12:35:38.010Z,20.53
2023-05-20T12:38:05.035Z,20.66
2023-05-20T12:40:31.422Z,20.92
2023-05-20T12:42:59.026Z,20.66
2023-05-20T12:45:25.534Z,20.80
2023-05-20T12:47:51.907Z,20.89
2023-05-20T12:50:18.386Z,20.71
2023-05-20T12:52:44.790Z,20.72
2023-05-20T12:55:13.832Z,20.56
2023-05-20T12:57:40.859Z,20.74
2023-05-20T13:00:08.336Z,20.70
2023-05-20T13:02:34.825Z,20.91
2023-05-20T13:05:01.340Z,21.29
2023-05-20T13:07:34.214Z,21.59
2023-05-20T13:10:00.594Z,21.79
2023-05-20T13:12:26.964Z,21.47
2023-05-20T13:14:53.491Z,21.55
2023-05-20T13:17:19.967Z,21.88
2023-05-20T13:19:46.390Z,22.17
2023-05-20T13:22:12.748Z,22.39
2023-05-20T13:24:39.123Z,22.47
2023-05-20T13:27:05.654Z,22.41
2023-05-20T13:29:31.993Z,22.25
2023-05-20T13:32:00.313Z,22.08
2023-05-20T13:34:28.412Z,22.00
2023-05-20T13:36:54.889Z,21.54
2023-05-20T13:39:28.472Z,21.07
2023-05-20T13:41:55.295Z,21.01
2023-05-20T13:44:21.834Z,21.49
2023-05-20T13:46:48.256Z,21.34
2023-05-20T13:49:14.636Z,21.36
2023-05-20T13:51:42.150Z,21.71
2023-05-20T13:54:08.505Z,21.58
2023-05-20T13:56:35.040Z,21.62
2023-05-20T13:59:01.385Z,21.79
2023-05-20T14:01:28.399Z,21.61
2023-05-20T14:03:55.984Z,21.76
2023-05-20T14:06:22.794Z,22.02
2023-05-20T14:08:56.624Z,22.13
2023-05-20T14:11:25.022Z,21.79
2023-05-20T14:13:52.435Z,21.64
2023-05-20T14:16:20.856Z,21.60
2023-05-20T14:18:47.234Z,21.78
2023-05-20T14:21:13.648Z,21.54
2023-05-20T14:23:44.319Z,21.69
2023-05-20T14:26:11.246Z,21.96
2023-05-20T14:28:37.793Z,22.37
2023-05-20T14:31:11.332Z,22.25
2023-05-20T14:33:37.719Z,22.30
2023-05-20T14:36:04.246Z,22.56
2023-05-20T14:38:30.958Z,22.67
2023-05-20T14:40:58.493Z,22.71
2023-05-20T14:43:24.885Z,22.50
2023-05-20T14:45:52.154Z,22.60
2023-05-20T14:48:25.598Z,22.22
2023-05-20T14:50:51.946Z,22.12
2023-05-20T14:53:19.395Z,22.27
2023-05-20T14:55:49.856Z,22.36
2023-05-20T14:58:17.291Z,22.25
2023-05-20T15:00:43.675Z,22.26
2023-05-20T15:03:10.236Z,22.53
2023-05-20T15:05:36.731Z,22.48
2023-05-20T15:08:03.779Z,22.35
2023-05-20T15:10:32.118Z,22.33
2023-05-20T15:12:58.636Z,22.42
2023-05-20T15:15:25.261Z,22.22
2023-05-20T15:17:51.802Z,22.33
2023-05-20T15:20:18.420Z,22.39
2023-05-20T15:22:47.825Z,22.44
2023-05-20T15:25:14.405Z,22.33
2023-05-20T15:27:50.924Z,22.41
2023-05-20T15:30:17.326Z,22.28
2023-05-20T15:32:43.847Z,21.96
2023-05-20T15:35:12.370Z,21.99
2023-05-20T15:37:38.796Z,22.15
2023-05-20T15:40:05.450Z,22.21
2023-05-20T15:42:37.837Z,22.30
2023-05-20T15:45:04.351Z,21.89
2023-05-20T15:47:31.809Z,22.03
2023-05-20T15:49:58.178Z,21.89
2023-05-20T15:52:24.628Z,21.96
2023-05-20T15:54:52.074Z,22.00
2023-05-20T15:57:18.569Z,21.96
2023-05-20T15:59:46.999Z,21.92
2023-05-20T16:02:14.503Z,22.05
2023-05-20T16:04:41.276Z,22.10
2023-05-20T16:07:09.788Z,22.03
2023-05-20T16:09:37.167Z,22.13
2023-05-20T16:12:06.082Z,22.08
2023-05-20T16:14:32.444Z,22.19
2023-05-20T16:16:58.849Z,22.16
2023-05-20T16:19:25.220Z,22.38
2023-05-20T16:21:51.606Z,22.23
2023-05-20T16:24:18.007Z,22.10
2023-05-20T16:26:45.595Z,22.09
2023-05-20T16:29:13.378Z,22.02
2023-05-20T16:31:41.473Z,22.00
2023-05-20T16:34:09.583Z,21.99
2023-05-20T16:36:39.344Z,21.83
2023-05-20T16:39:06.461Z,21.79
2023-05-20T16:46:54.170Z,21.87
2023-05-20T16:51:56.954Z,21.63
2023-05-20T16:54:23.475Z,21.57
2023-05-20T16:56:54.900Z,21.51
2023-05-20T16:59:21.353Z,21.35
2023-05-20T17:01:48.772Z,21.41
2023-05-20T17:04:15.150Z,21.41
2023-05-20T17:06:44.587Z,21.29
2023-05-20T17:09:29.522Z,21.19
2023-05-20T17:11:55.963Z,21.03
2023-05-20T17:14:22.356Z,21.00
2023-05-20T17:16:48.756Z,20.95
2023-05-20T17:19:17.237Z,20.79
2023-05-20T17:21:52.816Z,20.84
2023-05-20T17:24:20.480Z,20.82
2023-05-20T17:26:48.873Z,20.77
2023-05-20T17:29:22.446Z,20.80
2023-05-20T17:31:49.801Z,20.74
2023-05-20T17:34:17.250Z,20.57
2023-05-20T17:36:43.632Z,20.56
2023-05-20T17:39:19.204Z,20.46
2023-05-20T17:41:53.714Z,20.50
2023-05-20T17:44:21.074Z,20.32
2023-05-20T17:46:48.666Z,20.19
2023-05-20T17:49:15.347Z,20.18
2023-05-20T17:51:42.297Z,20.35
2023-05-20T17:54:08.684Z,20.24
2023-05-20T17:56:38.351Z,20.24
2023-05-20T17:59:04.758Z,19.99
2023-05-20T18:01:32.291Z,19.89
2023-05-20T18:04:03.660Z,19.72
2023-05-20T18:06:34.602Z,19.72
2023-05-20T18:09:05.946Z,19.62
2023-05-20T18:11:33.039Z,19.57
2023-05-20T18:13:59.862Z,19.61
2023-05-20T18:16:27.030Z,19.61
2023-05-20T18:18:53.793Z,19.43
2023-05-20T18:21:20.811Z,19.25
2023-05-20T18:23:47.455Z,19.13
2023-05-20T18:26:13.992Z,19.06
2023-05-20T18:28:40.731Z,18.95
2023-05-20T18:31:07.294Z,18.86
2023-05-20T18:33:34.005Z,18.91
2023-05-20T18:36:00.554Z,18.81
2023-05-20T18:38:27.212Z,18.60
2023-05-20T18:40:53.652Z,18.61
2023-05-20T18:43:20.051Z,18.71
2023-05-20T18:45:52.492Z,18.30
2023-05-20T18:48:32.417Z,18.29
2023-05-20T18:50:58.790Z,18.21
2023-05-20T18:53:25.379Z,18.21
2023-05-20T18:55:51.765Z,17.87
2023-05-20T18:58:18.268Z,17.71
2023-05-20T19:00:52.559Z,17.59
2023-05-20T19:03:19.012Z,17.50
2023-05-20T19:05:59.539Z,17.52
2023-05-20T19:08:27.501Z,17.57
2023-05-20T19:10:53.909Z,17.44
2023-05-20T19:13:20.548Z,17.46
2023-05-20T19:15:47.024Z,17.33
2023-05-20T19:18:14.653Z,17.44
2023-05-20T19:20:43.115Z,17.43
2023-05-20T19:23:09.449Z,17.35
2023-05-20T19:25:36.044Z,17.36
2023-05-20T19:28:02.668Z,17.39
2023-05-20T19:30:29.012Z,17.29
2023-05-20T19:33:03.629Z,17.21
2023-05-20T19:35:30.125Z,17.14
2023-05-20T19:38:04.971Z,17.11
2023-05-20T19:40:36.626Z,16.89
2023-05-20T19:43:12.185Z,16.79
2023-05-20T19:45:41.761Z,16.90
2023-05-20T19:48:10.740Z,16.77
2023-05-20T19:50:37.501Z,16.79
2023-05-20T19:53:15.135Z,16.92
2023-05-20T19:55:42.589Z,16.80
2023-05-20T19:58:17.845Z,16.51
2023-05-20T20:00:48.388Z,16.52
2023-05-20T20:03:29.107Z,16.63
2023-05-20T20:05:58.647Z,16.50
2023-05-20T20:08:25.015Z,16.30
2023-05-20T20:10:51.367Z,16.15
2023-05-20T20:13:26.913Z,16.05
2023-05-20T20:16:11.753Z,16.00
2023-05-20T20:18:47.624Z,15.85
2023-05-20T20:21:30.366Z,15.80
2023-05-20T20:24:03.880Z,15.80
2023-05-20T20:26:34.621Z,15.74
2023-05-20T20:29:04.084Z,15.64
2023-05-20T20:31:36.355Z,15.49
2023-05-20T20:34:02.857Z,15.52
2023-05-20T20:36:39.586Z,15.48
2023-05-20T20:39:26.226Z,15.42
2023-05-20T20:41:54.550Z,15.43
2023-05-20T20:44:21.065Z,15.33
2023-05-20T20:46:50.842Z,15.29
2023-05-20T20:49:18.773Z,15.25
2023-05-20T20:51:45.889Z,15.18
2023-05-20T20:54:14.236Z,15.13
2023-05-20T20:56:41.459Z,15.05
2023-05-20T20:59:10.241Z,14.93
2023-05-20T21:01:37.749Z,14.95
2023-05-20T21:04:08.901Z,14.88
2023-05-20T21:06:37.700Z,14.89
2023-05-20T21:09:04.180Z,14.73
2023-05-20T21:11:30.540Z,14.58
2023-05-20T21:13:56.907Z,14.46
2023-05-20T21:16:28.313Z,14.43
2023-05-20T21:18:54.711Z,14.40
2023-05-20T21:21:21.608Z,14.32
2023-05-20T21:23:52.864Z,14.24
2023-05-20T21:26:21.213Z,14.20
2023-05-20T21:28:47.790Z,14.17
2023-05-20T21:31:14.252Z,14.22
2023-05-20T21:33:40.672Z,14.16
2023-05-20T21:36:07.067Z,14.07
2023-05-20T21:38:33.455Z,13.90
2023-05-20T21:41:01.228Z,13.88
2023-05-20T21:43:27.699Z,13.77
2023-05-20T21:45:54.141Z,13.61
2023-05-20T21:48:27.608Z,13.46
2023-05-20T21:50:53.978Z,13.42
2023-05-20T21:53:20.379Z,13.38
2023-05-20T21:55:57.090Z,13.35
2023-05-20T21:58:23.445Z,13.23
2023-05-20T22:00:49.802Z,13.11
2023-05-20T22:03:16.344Z,13.04
2023-05-20T22:05:46.363Z,12.98
2023-05-20T22:08:13.923Z,12.94
2023-05-20T22:10:40.274Z,12.92
2023-05-20T22:13:06.785Z,12.99
2023-05-20T22:15:33.347Z,12.91
2023-05-20T22:17:59.897Z,12.79
2023-05-20T22:20:28.626Z,12.70
2023-05-20T22:22:54.972Z,12.63
2023-05-20T22:25:21.462Z,12.55
2023-05-20T22:27:48.192Z,12.50
2023-05-20T22:30:14.630Z,12.47
2023-05-20T22:32:44.207Z,12.53
2023-05-20T22:35:12.985Z,12.43
2023-05-20T22:37:39.350Z,12.34
